Station Historical Data
Daily Summary for November 10, 2017 Units:  English    Metric   Both
Next Day »
Daily Weekly Monthly Yearly Custom
  High: Low: Average:
Temperature: 51.4 °F 46.1 °F 48.7 °F
Dew Point: 48.9 °F 43.0 °F 45.5 °F
Humidity: 92% 88% 89%
Wind Speed: 6.0mph 0.0mph 0.3mph
Wind Gust: 10.0mph - -
Wind- - SSE
Pressure: 30.12 in 30.07 in -
Precipitation: 0.00 in    
Historical Graphs
 
 
Tabular Data for November 10, 2017
Time Temperature Dew Point Pressure Wind Wind Speed Wind Gust Humidity Rainfall Rate (Hourly) solar Conditions
00:03 47.4 °F 44.3 °F 30.11 in Calm     89% 0.00 in 0.00 W/m2
00:08 47.3 °F 44.2 °F 30.10 in Calm     89% 0.00 in 0.00 W/m2
00:14 47.3 °F 44.2 °F 30.11 in Calm     89% 0.00 in 0.00 W/m2
00:19 47.3 °F 44.2 °F 30.10 in Calm     89% 0.00 in 0.00 W/m2
00:24 47.2 °F 44.1 °F 30.10 in Calm     89% 0.00 in 0.00 W/m2
00:29 47.2 °F 44.1 °F 30.10 in Calm     89% 0.00 in 0.00 W/m2
00:34 47.2 °F 44.1 °F 30.10 in Calm     89% 0.00 in 0.00 W/m2
00:39 47.2 °F 44.1 °F 30.10 in Calm     89% 0.00 in 0.00 W/m2
00:44 47.2 °F 44.1 °F 30.10 in Calm     89% 0.00 in 0.00 W/m2
00:49 47.2 °F 44.1 °F 30.10 in Calm     89% 0.00 in 0.00 W/m2
00:54 47.2 °F 44.1 °F 30.10 in Calm     89% 0.00 in 0.00 W/m2
00:59 47.2 °F 44.1 °F 30.10 in Calm     89% 0.00 in 0.00 W/m2
01:04 47.2 °F 44.1 °F 30.10 in Calm     89% 0.00 in 0.00 W/m2
01:09 47.3 °F 44.2 °F 30.10 in Calm     89% 0.00 in 0.00 W/m2
01:14 47.3 °F 44.2 °F 30.10 in Calm     89% 0.00 in 0.00 W/m2
01:19 47.3 °F 44.2 °F 30.10 in Calm     89% 0.00 in 0.00 W/m2
01:24 47.3 °F 44.2 °F 30.10 in Calm     89% 0.00 in 0.00 W/m2
01:29 47.3 °F 44.2 °F 30.10 in Calm     89% 0.00 in 0.00 W/m2
01:34 47.4 °F 44.3 °F 30.10 in Calm     89% 0.00 in 0.00 W/m2
01:39 47.4 °F 44.3 °F 30.10 in Calm     89% 0.00 in 0.00 W/m2
01:44 47.4 °F 44.3 °F 30.10 in Calm     89% 0.00 in 0.00 W/m2
01:49 47.4 °F 44.3 °F 30.10 in Calm     89% 0.00 in 0.00 W/m2
01:54 47.4 °F 44.3 °F 30.10 in Calm     89% 0.00 in 0.00 W/m2
01:59 47.4 °F 44.3 °F 30.10 in Calm     89% 0.00 in 0.00 W/m2
02:04 47.5 °F 44.4 °F 30.10 in Calm     89% 0.00 in 0.00 W/m2
02:09 47.5 °F 44.4 °F 30.10 in Calm     89% 0.00 in 0.00 W/m2
02:14 47.5 °F 44.4 °F 30.10 in Calm     89% 0.00 in 0.00 W/m2
02:19 47.5 °F 44.4 °F 30.10 in Calm     89% 0.00 in 0.00 W/m2
02:24 47.6 °F 44.5 °F 30.10 in Calm     89% 0.00 in 0.00 W/m2
02:29 47.6 °F 44.5 °F 30.10 in Calm     89% 0.00 in 0.00 W/m2
02:34 47.6 °F 44.5 °F 30.09 in Calm     89% 0.00 in 0.00 W/m2
02:39 47.6 °F 44.5 °F 30.09 in Calm     89% 0.00 in 0.00 W/m2
02:44 47.6 °F 44.5 °F 30.09 in Calm     89% 0.00 in 0.00 W/m2
02:49 47.6 °F 44.5 °F 30.09 in Calm     89% 0.00 in 0.00 W/m2
02:54 47.6 °F 44.5 °F 30.09 in Calm     89% 0.00 in 0.00 W/m2
02:59 47.6 °F 44.5 °F 30.09 in Calm     89% 0.00 in 0.00 W/m2
03:04 47.6 °F 44.5 °F 30.09 in Calm     89% 0.00 in 0.00 W/m2
03:09 47.6 °F 44.5 °F 30.09 in Calm     89% 0.00 in 0.00 W/m2
03:14 47.6 °F 44.5 °F 30.09 in Calm     89% 0.00 in 0.00 W/m2
03:19 47.6 °F 44.5 °F 30.09 in Calm     89% 0.00 in 0.00 W/m2
03:24 47.6 °F 44.5 °F 30.09 in Calm     89% 0.00 in 0.00 W/m2
03:29 47.5 °F 44.4 °F 30.09 in Calm     89% 0.00 in 0.00 W/m2
03:34 47.5 °F 44.4 °F 30.09 in Calm     89% 0.00 in 0.00 W/m2
03:40 47.5 °F 44.4 °F 30.09 in Calm     89% 0.00 in 0.00 W/m2
03:44 47.5 °F 44.4 °F 30.09 in Calm     89% 0.00 in 0.00 W/m2
03:49 47.4 °F 44.3 °F 30.08 in Calm     89% 0.00 in 0.00 W/m2
03:54 47.4 °F 44.3 °F 30.09 in Calm     89% 0.00 in 0.00 W/m2
03:59 47.4 °F 44.3 °F 30.09 in Calm     89% 0.00 in 0.00 W/m2
04:05 47.3 °F 44.2 °F 30.08 in Calm     89% 0.00 in 0.00 W/m2
04:10 47.3 °F 44.2 °F 30.09 in Calm     89% 0.00 in 0.00 W/m2
04:15 47.2 °F 44.1 °F 30.09 in Calm     89% 0.00 in 0.00 W/m2
04:20 47.2 °F 44.1 °F 30.09 in Calm     89% 0.00 in 0.00 W/m2
04:25 47.1 °F 44.0 °F 30.09 in Calm     89% 0.00 in 0.00 W/m2
04:30 47.1 °F 44.0 °F 30.09 in Calm     89% 0.00 in 0.00 W/m2
04:35 47.0 °F 43.9 °F 30.09 in Calm     89% 0.00 in 0.00 W/m2
04:40 46.9 °F 43.8 °F 30.08 in Calm     89% 0.00 in 0.00 W/m2
04:45 46.9 °F 43.8 °F 30.09 in Calm     89% 0.00 in 0.00 W/m2
04:50 46.8 °F 43.7 °F 30.08 in Calm     89% 0.00 in 0.00 W/m2
04:55 46.7 °F 43.6 °F 30.09 in Calm     89% 0.00 in 0.00 W/m2
05:00 46.7 °F 43.6 °F 30.08 in Calm   8.0 mph 89% 0.00 in 0.00 W/m2
05:05 46.6 °F 43.5 °F 30.08 in Calm   1.0 mph 89% 0.00 in 0.00 W/m2
05:10 46.6 °F 43.5 °F 30.08 in Calm   1.0 mph 89% 0.00 in 0.00 W/m2
05:15 46.6 °F 43.5 °F 30.08 in Calm   1.0 mph 89% 0.00 in 0.00 W/m2
05:20 46.5 °F 43.4 °F 30.08 in Calm   1.0 mph 89% 0.00 in 0.00 W/m2
05:25 46.5 °F 43.4 °F 30.08 in Calm     89% 0.00 in 0.00 W/m2
05:30 46.5 °F 43.4 °F 30.08 in Calm     89% 0.00 in 0.00 W/m2
05:35 46.5 °F 43.4 °F 30.09 in Calm     89% 0.00 in 0.00 W/m2
05:40 46.6 °F 43.5 °F 30.08 in Calm     89% 0.00 in 0.00 W/m2
05:45 46.6 °F 43.5 °F 30.09 in Calm     89% 0.00 in 0.00 W/m2
05:50 46.6 °F 43.5 °F 30.09 in Calm     89% 0.00 in 0.00 W/m2
05:55 46.6 °F 43.5 °F 30.08 in Calm     89% 0.00 in 0.00 W/m2
06:00 46.6 °F 43.5 °F 30.08 in Calm     89% 0.00 in 0.00 W/m2
06:05 46.6 °F 43.5 °F 30.08 in Calm     89% 0.00 in 0.00 W/m2
06:10 46.6 °F 43.5 °F 30.09 in Calm     89% 0.00 in 0.00 W/m2
06:15 46.6 °F 43.5 °F 30.09 in Calm     89% 0.00 in 0.00 W/m2
06:20 46.6 °F 43.5 °F 30.09 in Calm     89% 0.00 in 0.00 W/m2
06:25 46.5 °F 43.4 °F 30.09 in Calm     89% 0.00 in 0.00 W/m2
06:30 46.5 °F 43.4 °F 30.09 in Calm     89% 0.00 in 0.00 W/m2
06:35 46.5 °F 43.4 °F 30.09 in Calm     89% 0.00 in 0.00 W/m2
06:40 46.4 °F 43.3 °F 30.09 in Calm     89% 0.00 in 0.00 W/m2
06:45 46.4 °F 43.3 °F 30.09 in Calm     89% 0.00 in 5.00 W/m2
06:50 46.3 °F 43.2 °F 30.09 in Calm     89% 0.00 in 7.00 W/m2
06:55 46.3 °F 43.2 °F 30.09 in Calm     89% 0.00 in 12.00 W/m2
07:00 46.2 °F 43.1 °F 30.09 in Calm     89% 0.00 in 18.00 W/m2
07:05 46.1 °F 43.0 °F 30.09 in Calm     89% 0.00 in 21.00 W/m2
07:10 46.1 °F 43.0 °F 30.09 in Calm     89% 0.00 in 26.00 W/m2
07:15 46.1 °F 43.0 °F 30.09 in Calm     89% 0.00 in 30.00 W/m2
07:20 46.1 °F 43.0 °F 30.09 in Calm     89% 0.00 in 33.00 W/m2
07:25 46.1 °F 43.0 °F 30.10 in Calm     89% 0.00 in 42.00 W/m2
07:30 46.1 °F 43.0 °F 30.10 in Calm     89% 0.00 in 47.00 W/m2
07:35 46.1 °F 43.0 °F 30.10 in Calm     89% 0.00 in 54.00 W/m2
07:40 46.2 °F 43.1 °F 30.10 in Calm     89% 0.00 in 72.00 W/m2
07:45 46.2 °F 43.1 °F 30.10 in Calm     89% 0.00 in 107.00 W/m2
07:59 46.5 °F 43.4 °F 30.10 in Calm     89% 0.00 in 127.00 W/m2
08:04 46.5 °F 43.4 °F 30.10 in Calm     89% 0.00 in 158.00 W/m2
08:09 46.6 °F 43.5 °F 30.10 in Calm     89% 0.00 in 121.00 W/m2
08:14 46.7 °F 43.6 °F 30.10 in Calm     89% 0.00 in 121.00 W/m2
08:19 46.8 °F 43.7 °F 30.11 in Calm     89% 0.00 in 88.00 W/m2
08:24 46.8 °F 43.7 °F 30.11 in Calm     89% 0.00 in 102.00 W/m2
08:29 46.8 °F 43.7 °F 30.11 in Calm     89% 0.00 in 120.00 W/m2
08:34 46.9 °F 43.8 °F 30.11 in Calm     89% 0.00 in 171.00 W/m2
08:39 46.9 °F 43.8 °F 30.11 in Calm     89% 0.00 in 399.00 W/m2
08:44 46.9 °F 43.8 °F 30.11 in Calm     89% 0.00 in 443.00 W/m2
08:49 47.0 °F 43.9 °F 30.10 in Calm     89% 0.00 in 322.00 W/m2
08:54 47.1 °F 44.0 °F 30.10 in Calm   4.0 mph 89% 0.00 in 260.00 W/m2
08:59 47.3 °F 44.2 °F 30.10 in Calm   1.0 mph 89% 0.00 in 229.00 W/m2
09:04 47.4 °F 44.3 °F 30.11 in ESE 2.0 mph 2.0 mph 89% 0.00 in 241.00 W/m2
09:09 47.6 °F 44.5 °F 30.10 in Calm   4.0 mph 89% 0.00 in 390.00 W/m2
09:14 47.7 °F 44.6 °F 30.10 in ESE 1.0 mph 2.0 mph 89% 0.00 in 281.00 W/m2
09:19 47.9 °F 44.8 °F 30.10 in Calm   2.0 mph 89% 0.00 in 306.00 W/m2
09:24 48.0 °F 44.9 °F 30.10 in Calm   4.0 mph 89% 0.00 in 466.00 W/m2
09:29 48.0 °F 44.9 °F 30.10 in Calm   4.0 mph 89% 0.00 in 253.00 W/m2
09:34 48.2 °F 45.1 °F 30.10 in Calm   2.0 mph 89% 0.00 in 130.00 W/m2
09:39 48.3 °F 45.2 °F 30.10 in Calm   2.0 mph 89% 0.00 in 153.00 W/m2
09:45 48.4 °F 45.3 °F 30.10 in Calm   1.0 mph 89% 0.00 in 236.00 W/m2
09:50 48.4 °F 45.3 °F 30.10 in Calm   1.0 mph 89% 0.00 in 276.00 W/m2
09:55 48.5 °F 45.4 °F 30.10 in Calm   2.0 mph 89% 0.00 in 315.00 W/m2
10:00 48.7 °F 45.6 °F 30.11 in Calm   1.0 mph 89% 0.00 in 415.00 W/m2
10:05 48.8 °F 45.7 °F 30.11 in Calm   1.0 mph 89% 0.00 in 404.00 W/m2
10:10 49.0 °F 45.9 °F 30.11 in Calm   2.0 mph 89% 0.00 in 297.00 W/m2
10:15 49.2 °F 46.1 °F 30.11 in Calm   2.0 mph 89% 0.00 in 262.00 W/m2
10:20 49.3 °F 46.2 °F 30.11 in SSE 1.0 mph 2.0 mph 89% 0.00 in 264.00 W/m2
10:25 49.4 °F 46.6 °F 30.11 in Calm   4.0 mph 90% 0.00 in 244.00 W/m2
10:30 49.4 °F 46.3 °F 30.11 in South 1.0 mph 1.0 mph 89% 0.00 in 218.00 W/m2
10:35 49.6 °F 46.5 °F 30.11 in Calm   2.0 mph 89% 0.00 in 225.00 W/m2
10:40 49.8 °F 46.7 °F 30.11 in Calm   2.0 mph 89% 0.00 in 276.00 W/m2
10:45 49.9 °F 46.8 °F 30.11 in South 1.0 mph 1.0 mph 89% 0.00 in 299.00 W/m2
10:50 50.0 °F 46.9 °F 30.11 in Calm   2.0 mph 89% 0.00 in 318.00 W/m2
10:55 50.2 °F 47.1 °F 30.11 in SSE 2.0 mph 2.0 mph 89% 0.00 in 320.00 W/m2
11:00 50.2 °F 47.1 °F 30.11 in SSE 1.0 mph 2.0 mph 89% 0.00 in 258.00 W/m2
11:05 50.3 °F 47.2 °F 30.11 in Calm   2.0 mph 89% 0.00 in 176.00 W/m2
11:10 50.3 °F 47.2 °F 30.11 in Calm   2.0 mph 89% 0.00 in 139.00 W/m2
11:15 50.4 °F 47.3 °F 30.10 in Calm   2.0 mph 89% 0.00 in 253.00 W/m2
11:20 50.5 °F 47.4 °F 30.10 in Calm   2.0 mph 89% 0.00 in 276.00 W/m2
11:25 50.7 °F 47.6 °F 30.10 in Calm   1.0 mph 89% 0.00 in 218.00 W/m2
11:30 50.9 °F 47.8 °F 30.10 in Calm     89% 0.00 in 202.00 W/m2
11:35 51.1 °F 48.9 °F 30.10 in Calm   2.0 mph 92% 0.00 in 190.00 W/m2
11:40 51.2 °F 48.1 °F 30.09 in Calm   2.0 mph 89% 0.00 in 174.00 W/m2
11:45 51.2 °F 48.1 °F 30.09 in Calm   2.0 mph 89% 0.00 in 188.00 W/m2
11:50 51.3 °F 48.2 °F 30.09 in Calm   4.0 mph 89% 0.00 in 197.00 W/m2
11:55 51.3 °F 48.2 °F 30.09 in Calm   1.0 mph 89% 0.00 in 158.00 W/m2
12:00 51.2 °F 48.1 °F 30.09 in Calm   4.0 mph 89% 0.00 in 132.00 W/m2
12:05 51.2 °F 48.1 °F 30.09 in Calm   2.0 mph 89% 0.00 in 79.00 W/m2
12:10 51.3 °F 48.2 °F 30.08 in Calm   1.0 mph 89% 0.00 in 105.00 W/m2
12:15 51.3 °F 48.2 °F 30.08 in Calm   2.0 mph 89% 0.00 in 148.00 W/m2
12:20 51.4 °F 48.3 °F 30.08 in Calm     89% 0.00 in 135.00 W/m2
12:25 51.4 °F 48.3 °F 30.08 in Calm   2.0 mph 89% 0.00 in 121.00 W/m2
12:30 51.4 °F 48.3 °F 30.08 in South 1.0 mph 6.0 mph 89% 0.00 in 62.00 W/m2
12:35 51.3 °F 48.2 °F 30.08 in Calm   5.0 mph 89% 0.00 in 93.00 W/m2
12:40 51.2 °F 48.1 °F 30.08 in Calm   5.0 mph 89% 0.00 in 114.00 W/m2
12:45 51.2 °F 48.1 °F 30.08 in Calm   2.0 mph 89% 0.04 in 158.00 W/m2
12:50 51.1 °F 48.0 °F 30.08 in Calm   2.0 mph 89% 0.04 in 221.00 W/m2
12:55 51.1 °F 48.0 °F 30.08 in Calm     89% 0.04 in 199.00 W/m2
13:00 51.1 °F 48.0 °F 30.08 in Calm     89% 0.04 in 207.00 W/m2
13:05 51.2 °F 48.1 °F 30.08 in Calm     89% 0.00 in 144.00 W/m2
13:10 51.2 °F 48.1 °F 30.08 in Calm     89% 0.00 in 113.00 W/m2
13:15 51.2 °F 48.1 °F 30.08 in Calm     89% 0.00 in 114.00 W/m2
13:20 51.2 °F 48.1 °F 30.08 in Calm     89% 0.00 in 111.00 W/m2
13:25 51.2 °F 48.1 °F 30.08 in Calm     89% 0.00 in 114.00 W/m2
13:30 51.1 °F 48.0 °F 30.07 in Calm     89% 0.00 in 95.00 W/m2
13:35 51.0 °F 48.8 °F 30.07 in Calm     92% 0.00 in 83.00 W/m2
13:40 51.0 °F 47.9 °F 30.08 in Calm     89% 0.08 in 56.00 W/m2
13:45 50.9 °F 47.8 °F 30.07 in Calm     89% 0.08 in 76.00 W/m2
13:50 50.9 °F 47.8 °F 30.07 in Calm   8.0 mph 89% 0.06 in 179.00 W/m2
13:55 50.9 °F 47.5 °F 30.07 in Calm   4.0 mph 88% 0.04 in 178.00 W/m2
14:00 50.9 °F 47.5 °F 30.07 in Calm     88% 0.00 in 158.00 W/m2
14:05 50.9 °F 47.5 °F 30.07 in Calm     88% 0.00 in 134.00 W/m2
14:10 50.9 °F 47.5 °F 30.07 in Calm     88% 0.00 in 88.00 W/m2
14:15 50.9 °F 47.5 °F 30.07 in Calm     88% 0.00 in 77.00 W/m2
14:20 50.9 °F 47.5 °F 30.07 in Calm     88% 0.00 in 74.00 W/m2
14:25 51.0 °F 47.6 °F 30.07 in Calm     88% 0.00 in 63.00 W/m2
14:30 51.0 °F 47.6 °F 30.07 in Calm     88% 0.05 in 51.00 W/m2
14:35 50.9 °F 47.5 °F 30.07 in Calm     88% 0.15 in 79.00 W/m2
14:40 50.8 °F 47.4 °F 30.07 in Calm     88% 0.09 in 23.00 W/m2
14:45 50.8 °F 47.4 °F 30.07 in Calm     88% 0.06 in 46.00 W/m2
14:50 50.8 °F 47.4 °F 30.07 in Calm     88% 0.06 in 35.00 W/m2
14:55 50.9 °F 47.5 °F 30.07 in Calm     88% 0.05 in 63.00 W/m2
15:00 50.9 °F 47.5 °F 30.08 in Calm   1.0 mph 88% 0.00 in 51.00 W/m2
15:05 50.8 °F 47.4 °F 30.08 in Calm   4.0 mph 88% 0.00 in 42.00 W/m2
15:10 50.9 °F 47.5 °F 30.08 in Calm     88% 0.00 in 12.00 W/m2
15:15 50.9 °F 47.5 °F 30.08 in Calm   6.0 mph 88% 0.13 in 25.00 W/m2
15:20 50.8 °F 47.4 °F 30.08 in SSW 2.0 mph 5.0 mph 88% 0.10 in 37.00 W/m2
15:25 50.8 °F 47.4 °F 30.08 in SSW 1.0 mph 4.0 mph 88% 0.06 in 26.00 W/m2
15:30 50.7 °F 47.3 °F 30.08 in Calm   3.0 mph 88% 0.06 in 32.00 W/m2
15:35 50.7 °F 47.3 °F 30.08 in Calm     88% 0.06 in 23.00 W/m2
15:40 50.6 °F 47.2 °F 30.08 in Calm     88% 0.04 in 33.00 W/m2
15:45 50.6 °F 47.2 °F 30.08 in Calm     88% 0.00 in 12.00 W/m2
15:50 50.5 °F 47.1 °F 30.09 in Calm     88% 0.00 in 7.00 W/m2
15:55 50.4 °F 47.0 °F 30.08 in Calm     88% 0.00 in 14.00 W/m2
16:00 50.4 °F 47.0 °F 30.08 in Calm     88% 0.00 in 7.00 W/m2
16:05 50.4 °F 47.0 °F 30.08 in Calm     88% 0.00 in 11.00 W/m2
16:10 50.3 °F 46.9 °F 30.09 in Calm   2.0 mph 88% 0.27 in 9.00 W/m2
16:15 50.3 °F 46.9 °F 30.09 in Calm     88% 0.16 in 9.00 W/m2
16:16 50.3 °F 46.9 °F 30.09 in Calm     88% 0.16 in 11.00 W/m2
16:21 50.2 °F 46.8 °F 30.08 in Calm     88% 0.08 in 11.00 W/m2
16:26 50.1 °F 46.7 °F 30.08 in Calm     88% 0.08 in 12.00 W/m2
16:31 50.0 °F 46.6 °F 30.09 in Calm     88% 0.22 in 14.00 W/m2
16:36 50.0 °F 46.6 °F 30.09 in Calm     88% 0.10 in 9.00 W/m2
16:41 50.0 °F 46.6 °F 30.09 in Calm     88% 0.05 in 5.00 W/m2
16:46 50.0 °F 46.6 °F 30.09 in Calm     88% 0.04 in 5.00 W/m2
16:51 50.0 °F 46.6 °F 30.09 in Calm     88% 0.00 in 7.00 W/m2
16:56 49.9 °F 46.5 °F 30.08 in Calm     88% 0.00 in 0.00 W/m2
17:01 49.9 °F 46.5 °F 30.09 in Calm     88% 0.00 in 0.00 W/m2
17:06 49.9 °F 46.5 °F 30.08 in Calm     88% 0.00 in 0.00 W/m2
17:11 49.9 °F 46.5 °F 30.08 in Calm     88% 0.00 in 0.00 W/m2
17:16 49.9 °F 46.5 °F 30.08 in South 1.0 mph 4.0 mph 88% 0.00 in 0.00 W/m2
17:21 49.9 °F 46.5 °F 30.08 in Calm     88% 0.00 in 0.00 W/m2
17:26 49.9 °F 46.5 °F 30.08 in Calm     88% 0.00 in 0.00 W/m2
17:28 49.9 °F 46.5 °F 30.08 in Calm     88% 0.00 in 0.00 W/m2
17:33 49.8 °F 46.4 °F 30.08 in South 4.0 mph 7.0 mph 88% 0.00 in 0.00 W/m2
17:38 49.7 °F 46.3 °F 30.09 in Calm   6.0 mph 88% 0.00 in 0.00 W/m2
17:43 49.6 °F 46.2 °F 30.09 in SSE 6.0 mph 7.0 mph 88% 0.00 in 0.00 W/m2
17:48 49.6 °F 46.2 °F 30.09 in Calm   5.0 mph 88% 0.00 in 0.00 W/m2
17:53 49.6 °F 46.2 °F 30.09 in SSE 6.0 mph 7.0 mph 88% 0.00 in 0.00 W/m2
17:58 49.6 °F 46.2 °F 30.09 in SSE 2.0 mph 6.0 mph 88% 0.00 in 0.00 W/m2
18:03 49.6 °F 46.2 °F 30.09 in SSE 4.0 mph 6.0 mph 88% 0.00 in 0.00 W/m2
18:08 49.6 °F 46.2 °F 30.09 in Calm   5.0 mph 88% 0.00 in 0.00 W/m2
18:13 49.6 °F 46.2 °F 30.09 in SE 6.0 mph 10.0 mph 88% 0.00 in 0.00 W/m2
18:18 49.6 °F 46.2 °F 30.09 in Calm   8.0 mph 88% 0.00 in 0.00 W/m2
18:23 49.6 °F 46.2 °F 30.08 in Calm   9.0 mph 88% 0.00 in 0.00 W/m2
18:28 49.6 °F 46.2 °F 30.09 in Calm   8.0 mph 88% 0.00 in 0.00 W/m2
18:33 49.6 °F 46.2 °F 30.09 in SE 2.0 mph 7.0 mph 88% 0.00 in 0.00 W/m2
18:38 49.6 °F 46.2 °F 30.09 in SE 2.0 mph 5.0 mph 88% 0.00 in 0.00 W/m2
18:43 49.5 °F 46.1 °F 30.09 in Calm   5.0 mph 88% 0.00 in 0.00 W/m2
18:48 49.5 °F 46.1 °F 30.09 in SE 1.0 mph 5.0 mph 88% 0.00 in 0.00 W/m2
18:53 49.4 °F 46.0 °F 30.10 in Calm   6.0 mph 88% 0.00 in 0.00 W/m2
18:59 49.4 °F 46.0 °F 30.10 in Calm   5.0 mph 88% 0.00 in 0.00 W/m2
19:04 49.3 °F 45.9 °F 30.10 in SE 2.0 mph 5.0 mph 88% 0.00 in 0.00 W/m2
19:09 49.2 °F 45.8 °F 30.10 in SE 5.0 mph 6.0 mph 88% 0.00 in 0.00 W/m2
19:17 49.2 °F 45.8 °F 30.10 in Calm   4.0 mph 88% 0.00 in 0.00 W/m2
19:20 49.2 °F 45.8 °F 30.10 in SE 4.0 mph 5.0 mph 88% 0.00 in 0.00 W/m2
19:22 49.2 °F 45.8 °F 30.10 in Calm   2.0 mph 88% 0.00 in 0.00 W/m2
19:25 49.1 °F 45.7 °F 30.10 in Calm   6.0 mph 88% 0.00 in 0.00 W/m2
19:28 49.1 °F 45.7 °F 30.10 in Calm     88% 0.00 in 0.00 W/m2
19:30 49.1 °F 45.7 °F 30.10 in Calm     88% 0.00 in 0.00 W/m2
19:35 49.1 °F 46.0 °F 30.10 in Calm     89% 0.00 in 0.00 W/m2
19:40 49.1 °F 45.7 °F 30.10 in Calm     88% 0.00 in 0.00 W/m2
19:45 49.0 °F 45.9 °F 30.10 in Calm     89% 0.00 in 0.00 W/m2
19:50 49.0 °F 45.9 °F 30.10 in SE 4.0 mph 5.0 mph 89% 0.00 in 0.00 W/m2
19:55 49.0 °F 45.9 °F 30.10 in Calm   4.0 mph 89% 0.00 in 0.00 W/m2
20:00 49.0 °F 45.9 °F 30.10 in Calm   5.0 mph 89% 0.00 in 0.00 W/m2
20:05 48.9 °F 46.7 °F 30.10 in Calm     92% 0.00 in 0.00 W/m2
20:10 48.9 °F 45.5 °F 30.10 in SE 1.0 mph 6.0 mph 88% 0.00 in 0.00 W/m2
20:15 48.8 °F 45.4 °F 30.10 in Calm   4.0 mph 88% 0.00 in 0.00 W/m2
20:20 48.8 °F 45.4 °F 30.10 in SE 2.0 mph 4.0 mph 88% 0.00 in 0.00 W/m2
20:25 48.7 °F 45.3 °F 30.10 in Calm   5.0 mph 88% 0.00 in 0.00 W/m2
20:30 48.7 °F 45.3 °F 30.10 in Calm     88% 0.00 in 0.00 W/m2
20:35 48.7 °F 45.3 °F 30.11 in Calm     88% 0.00 in 0.00 W/m2
20:40 48.7 °F 45.3 °F 30.11 in Calm     88% 0.00 in 0.00 W/m2
20:45 48.7 °F 45.3 °F 30.11 in Calm     88% 0.00 in 0.00 W/m2
20:50 48.7 °F 45.3 °F 30.11 in Calm     88% 0.00 in 0.00 W/m2
20:56 48.7 °F 45.3 °F 30.11 in Calm     88% 0.00 in 0.00 W/m2
21:01 48.7 °F 45.3 °F 30.11 in Calm     88% 0.00 in 0.00 W/m2
21:06 48.6 °F 45.2 °F 30.11 in Calm   4.0 mph 88% 0.00 in 0.00 W/m2
21:11 48.7 °F 45.3 °F 30.11 in Calm   5.0 mph 88% 0.00 in 0.00 W/m2
21:16 48.6 °F 45.2 °F 30.12 in Calm   6.0 mph 88% 0.00 in 0.00 W/m2
21:21 48.6 °F 45.2 °F 30.12 in Calm     88% 0.00 in 0.00 W/m2
21:26 48.7 °F 45.3 °F 30.12 in Calm     88% 0.00 in 0.00 W/m2
21:31 48.7 °F 45.6 °F 30.12 in Calm     89% 0.00 in 0.00 W/m2
21:36 48.7 °F 45.6 °F 30.12 in Calm     89% 0.00 in 0.00 W/m2
21:41 48.8 °F 45.7 °F 30.12 in SE 2.0 mph 5.0 mph 89% 0.00 in 0.00 W/m2
21:46 48.8 °F 45.7 °F 30.12 in SE 2.0 mph 4.0 mph 89% 0.00 in 0.00 W/m2
21:51 48.8 °F 45.7 °F 30.12 in Calm     89% 0.00 in 0.00 W/m2
21:56 48.8 °F 45.7 °F 30.12 in Calm     89% 0.00 in 0.00 W/m2
22:01 48.8 °F 45.7 °F 30.12 in Calm     89% 0.00 in 0.00 W/m2
22:06 48.8 °F 45.7 °F 30.12 in Calm     89% 0.00 in 0.00 W/m2
22:11 48.8 °F 45.7 °F 30.12 in Calm     89% 0.00 in 0.00 W/m2
22:16 48.8 °F 45.7 °F 30.12 in Calm     89% 0.00 in 0.00 W/m2
22:21 48.8 °F 45.7 °F 30.12 in Calm     89% 0.00 in 0.00 W/m2
22:26 48.7 °F 45.6 °F 30.12 in Calm     89% 0.00 in 0.00 W/m2
22:31 48.7 °F 45.6 °F 30.12 in Calm     89% 0.00 in 0.00 W/m2
22:36 48.6 °F 45.5 °F 30.12 in Calm     89% 0.00 in 0.00 W/m2
22:41 48.6 °F 45.5 °F 30.12 in Calm     89% 0.00 in 0.00 W/m2
22:46 48.5 °F 45.4 °F 30.12 in Calm     89% 0.00 in 0.00 W/m2
22:51 48.5 °F 45.4 °F 30.12 in Calm     89% 0.00 in 0.00 W/m2
22:56 48.4 °F 45.3 °F 30.12 in Calm     89% 0.00 in 0.00 W/m2
23:01 48.4 °F 45.3 °F 30.12 in SE 4.0 mph 4.0 mph 89% 0.00 in 0.00 W/m2
23:06 48.3 °F 45.2 °F 30.12 in SE 1.0 mph 4.0 mph 89% 0.00 in 0.00 W/m2
23:11 48.3 °F 45.2 °F 30.12 in SE 1.0 mph 6.0 mph 89% 0.00 in 0.00 W/m2
23:16 48.2 °F 45.1 °F 30.12 in Calm   1.0 mph 89% 0.00 in 0.00 W/m2
23:21 48.2 °F 45.1 °F 30.12 in Calm     89% 0.00 in 0.00 W/m2
23:24 48.2 °F 45.1 °F 30.12 in Calm     89% 0.00 in 0.00 W/m2
23:29 48.2 °F 45.1 °F 30.12 in Calm     89% 0.00 in 0.00 W/m2
23:32 48.1 °F 45.0 °F 30.12 in Calm     89% 0.00 in 0.00 W/m2
23:37 48.1 °F 45.0 °F 30.12 in Calm     89% 0.00 in 0.00 W/m2
23:42 48.0 °F 44.9 °F 30.12 in Calm     89% 0.00 in 0.00 W/m2
23:47 48.0 °F 44.9 °F 30.12 in Calm     89% 0.00 in 0.00 W/m2
23:52 47.9 °F 44.8 °F 30.12 in Calm     89% 0.00 in 0.00 W/m2
23:57 47.9 °F 44.8 °F 30.12 in Calm   6.0 mph 89% 0.00 in 0.00 W/m2
Foresthill Weather
 WU-history PHP script courtesy of   Juneau County Weather.
powered by Cumulus v1.9.3 (1059)
Ambient Weather VWS v14.00
Top Contact Website Map Copyright © 2007 - 2018 Foresthillweather.com Never base important decisions on this or any weather information obtained from the Internet